sensor_id;sensor_type;location;lat;lon;timestamp;temperature;humidity
16907;DHT22;8570;52.380;4.654;2023-03-20T00:01:29;8.40;99.90
16907;DHT22;8570;52.380;4.654;2023-03-20T00:06:33;8.40;99.90
16907;DHT22;8570;52.380;4.654;2023-03-20T00:11:40;8.40;99.90
16907;DHT22;8570;52.380;4.654;2023-03-20T00:16:45;8.40;99.90
16907;DHT22;8570;52.380;4.654;2023-03-20T00:21:50;8.30;99.90
16907;DHT22;8570;52.380;4.654;2023-03-20T00:26:53;8.30;99.90
16907;DHT22;8570;52.380;4.654;2023-03-20T00:31:56;8.30;99.90
16907;DHT22;8570;52.380;4.654;2023-03-20T00:36:59;8.30;99.90
16907;DHT22;8570;52.380;4.654;2023-03-20T00:42:03;8.30;99.90
16907;DHT22;8570;52.380;4.654;2023-03-20T00:47:12;8.30;99.90
16907;DHT22;8570;52.380;4.654;2023-03-20T00:52:19;8.30;99.90
16907;DHT22;8570;52.380;4.654;2023-03-20T00:57:23;8.30;99.90
16907;DHT22;8570;52.380;4.654;2023-03-20T01:02:26;8.20;99.90
16907;DHT22;8570;52.380;4.654;2023-03-20T01:07:31;8.20;99.90
16907;DHT22;8570;52.380;4.654;2023-03-20T01:12:33;8.20;99.90
16907;DHT22;8570;52.380;4.654;2023-03-20T01:17:35;8.20;99.90
16907;DHT22;8570;52.380;4.654;2023-03-20T01:22:39;8.10;99.90
16907;DHT22;8570;52.380;4.654;2023-03-20T01:27:43;8.10;99.90
16907;DHT22;8570;52.380;4.654;2023-03-20T01:32:46;8.10;99.90
16907;DHT22;8570;52.380;4.654;2023-03-20T01:37:50;8.10;99.90
16907;DHT22;8570;52.380;4.654;2023-03-20T01:42:52;8.10;99.90
16907;DHT22;8570;52.380;4.654;2023-03-20T01:47:54;8.10;99.90
16907;DHT22;8570;52.380;4.654;2023-03-20T01:53:11;8.10;99.90
16907;DHT22;8570;52.380;4.654;2023-03-20T01:58:17;8.00;99.90
16907;DHT22;8570;52.380;4.654;2023-03-20T02:03:20;8.00;99.90
16907;DHT22;8570;52.380;4.654;2023-03-20T02:08:27;8.00;99.90
16907;DHT22;8570;52.380;4.654;2023-03-20T02:13:30;8.00;99.90
16907;DHT22;8570;52.380;4.654;2023-03-20T02:18:33;8.00;99.90
16907;DHT22;8570;52.380;4.654;2023-03-20T02:23:59;8.00;99.90
16907;DHT22;8570;52.380;4.654;2023-03-20T02:40:57;7.90;99.90
16907;DHT22;8570;52.380;4.654;2023-03-20T02:46:08;7.90;99.90
16907;DHT22;8570;52.380;4.654;2023-03-20T02:51:17;7.80;99.90
16907;DHT22;8570;52.380;4.654;2023-03-20T02:56:27;7.80;99.90
16907;DHT22;8570;52.380;4.654;2023-03-20T03:01:34;7.80;99.90
16907;DHT22;8570;52.380;4.654;2023-03-20T03:06:38;7.80;99.90
16907;DHT22;8570;52.380;4.654;2023-03-20T03:11:47;7.80;99.90
16907;DHT22;8570;52.380;4.654;2023-03-20T03:16:50;7.70;99.90
16907;DHT22;8570;52.380;4.654;2023-03-20T03:21:52;7.70;99.90
16907;DHT22;8570;52.380;4.654;2023-03-20T03:26:58;7.60;99.90
16907;DHT22;8570;52.380;4.654;2023-03-20T03:32:01;7.60;99.90
16907;DHT22;8570;52.380;4.654;2023-03-20T03:37:07;7.60;99.90
16907;DHT22;8570;52.380;4.654;2023-03-20T03:42:17;7.60;99.90
16907;DHT22;8570;52.380;4.654;2023-03-20T03:47:27;7.50;99.90
16907;DHT22;8570;52.380;4.654;2023-03-20T03:52:32;7.50;99.90
16907;DHT22;8570;52.380;4.654;2023-03-20T03:57:40;7.50;99.90
16907;DHT22;8570;52.380;4.654;2023-03-20T04:02:43;7.50;99.90
16907;DHT22;8570;52.380;4.654;2023-03-20T04:07:46;7.50;99.90
16907;DHT22;8570;52.380;4.654;2023-03-20T04:12:50;7.50;99.90
16907;DHT22;8570;52.380;4.654;2023-03-20T04:17:52;7.40;99.90
16907;DHT22;8570;52.380;4.654;2023-03-20T04:22:54;7.40;99.90
16907;DHT22;8570;52.380;4.654;2023-03-20T04:27:57;7.40;99.90
16907;DHT22;8570;52.380;4.654;2023-03-20T04:32:59;7.40;99.90
16907;DHT22;8570;52.380;4.654;2023-03-20T04:38:01;7.40;99.90
16907;DHT22;8570;52.380;4.654;2023-03-20T04:43:04;7.40;99.90
16907;DHT22;8570;52.380;4.654;2023-03-20T04:48:06;7.40;99.90
16907;DHT22;8570;52.380;4.654;2023-03-20T04:53:08;7.40;99.90
16907;DHT22;8570;52.380;4.654;2023-03-20T04:58:14;7.40;99.90
16907;DHT22;8570;52.380;4.654;2023-03-20T05:03:16;7.40;99.90
16907;DHT22;8570;52.380;4.654;2023-03-20T05:08:18;7.40;99.90
16907;DHT22;8570;52.380;4.654;2023-03-20T05:13:21;7.50;99.90
16907;DHT22;8570;52.380;4.654;2023-03-20T05:18:23;7.50;99.90
16907;DHT22;8570;52.380;4.654;2023-03-20T05:23:25;7.40;99.90
16907;DHT22;8570;52.380;4.654;2023-03-20T05:28:29;7.50;99.90
16907;DHT22;8570;52.380;4.654;2023-03-20T05:33:31;7.40;99.90
16907;DHT22;8570;52.380;4.654;2023-03-20T05:38:33;7.40;99.90
16907;DHT22;8570;52.380;4.654;2023-03-20T05:43:36;7.40;99.90
16907;DHT22;8570;52.380;4.654;2023-03-20T05:48:38;7.40;99.90
16907;DHT22;8570;52.380;4.654;2023-03-20T05:53:40;7.40;99.90
16907;DHT22;8570;52.380;4.654;2023-03-20T05:58:46;7.40;99.90
16907;DHT22;8570;52.380;4.654;2023-03-20T06:03:49;7.40;99.90
16907;DHT22;8570;52.380;4.654;2023-03-20T06:08:51;7.40;99.90
16907;DHT22;8570;52.380;4.654;2023-03-20T06:13:54;7.40;99.90
16907;DHT22;8570;52.380;4.654;2023-03-20T06:18:57;7.40;99.90
16907;DHT22;8570;52.380;4.654;2023-03-20T06:23:59;7.40;99.90
16907;DHT22;8570;52.380;4.654;2023-03-20T06:29:02;7.40;99.90
16907;DHT22;8570;52.380;4.654;2023-03-20T06:34:04;7.40;99.90
16907;DHT22;8570;52.380;4.654;2023-03-20T06:39:06;7.40;99.90
16907;DHT22;8570;52.380;4.654;2023-03-20T06:44:10;7.40;99.90
16907;DHT22;8570;52.380;4.654;2023-03-20T06:49:12;7.40;99.90
16907;DHT22;8570;52.380;4.654;2023-03-20T06:54:14;7.40;99.90
16907;DHT22;8570;52.380;4.654;2023-03-20T06:59:17;7.40;99.90
16907;DHT22;8570;52.380;4.654;2023-03-20T07:04:19;7.50;99.90
16907;DHT22;8570;52.380;4.654;2023-03-20T07:09:21;7.50;99.90
16907;DHT22;8570;52.380;4.654;2023-03-20T07:14:25;7.50;99.90
16907;DHT22;8570;52.380;4.654;2023-03-20T07:19:27;7.50;99.90
16907;DHT22;8570;52.380;4.654;2023-03-20T07:24:29;7.50;99.90
16907;DHT22;8570;52.380;4.654;2023-03-20T07:29:34;7.60;99.90
16907;DHT22;8570;52.380;4.654;2023-03-20T07:34:36;7.60;99.90
16907;DHT22;8570;52.380;4.654;2023-03-20T07:39:38;7.70;99.90
16907;DHT22;8570;52.380;4.654;2023-03-20T07:44:42;7.70;99.90
16907;DHT22;8570;52.380;4.654;2023-03-20T07:49:44;7.80;99.90
16907;DHT22;8570;52.380;4.654;2023-03-20T07:54:46;7.90;99.90
16907;DHT22;8570;52.380;4.654;2023-03-20T07:59:49;7.90;99.90
16907;DHT22;8570;52.380;4.654;2023-03-20T08:04:51;7.90;99.90
16907;DHT22;8570;52.380;4.654;2023-03-20T08:09:53;8.00;99.90
16907;DHT22;8570;52.380;4.654;2023-03-20T08:14:56;8.00;99.90
16907;DHT22;8570;52.380;4.654;2023-03-20T08:19:58;8.00;99.90
16907;DHT22;8570;52.380;4.654;2023-03-20T08:25:00;8.00;99.90
16907;DHT22;8570;52.380;4.654;2023-03-20T08:30:04;8.00;99.90
16907;DHT22;8570;52.380;4.654;2023-03-20T08:35:07;8.10;99.90
16907;DHT22;8570;52.380;4.654;2023-03-20T08:40:11;8.00;99.90
16907;DHT22;8570;52.380;4.654;2023-03-20T08:45:15;8.00;99.90
16907;DHT22;8570;52.380;4.654;2023-03-20T08:50:17;8.10;99.90
16907;DHT22;8570;52.380;4.654;2023-03-20T08:55:19;8.00;99.90
16907;DHT22;8570;52.380;4.654;2023-03-20T09:00:23;8.10;99.90
16907;DHT22;8570;52.380;4.654;2023-03-20T09:05:27;8.10;99.90
16907;DHT22;8570;52.380;4.654;2023-03-20T09:10:29;8.10;99.90
16907;DHT22;8570;52.380;4.654;2023-03-20T09:15:33;8.10;99.90
16907;DHT22;8570;52.380;4.654;2023-03-20T09:20:35;8.10;99.90
16907;DHT22;8570;52.380;4.654;2023-03-20T09:25:37;8.10;99.90
16907;DHT22;8570;52.380;4.654;2023-03-20T09:30:40;8.10;99.90
16907;DHT22;8570;52.380;4.654;2023-03-20T09:35:43;8.20;99.90
16907;DHT22;8570;52.380;4.654;2023-03-20T09:40:50;8.20;99.90
16907;DHT22;8570;52.380;4.654;2023-03-20T09:46:01;8.30;99.90
16907;DHT22;8570;52.380;4.654;2023-03-20T09:51:13;8.30;99.90
16907;DHT22;8570;52.380;4.654;2023-03-20T09:56:22;8.30;99.90
16907;DHT22;8570;52.380;4.654;2023-03-20T10:01:32;8.30;99.90
16907;DHT22;8570;52.380;4.654;2023-03-20T10:06:36;8.30;99.90
16907;DHT22;8570;52.380;4.654;2023-03-20T10:11:57;8.40;99.90
16907;DHT22;8570;52.380;4.654;2023-03-20T10:17:14;8.40;99.90
16907;DHT22;8570;52.380;4.654;2023-03-20T10:22:21;8.40;99.90
16907;DHT22;8570;52.380;4.654;2023-03-20T10:27:29;8.40;99.90
16907;DHT22;8570;52.380;4.654;2023-03-20T10:32:38;8.40;99.90
16907;DHT22;8570;52.380;4.654;2023-03-20T10:37:50;8.40;99.90
16907;DHT22;8570;52.380;4.654;2023-03-20T10:42:56;8.40;99.90
16907;DHT22;8570;52.380;4.654;2023-03-20T10:48:05;8.50;99.90
16907;DHT22;8570;52.380;4.654;2023-03-20T10:53:25;8.40;99.90
16907;DHT22;8570;52.380;4.654;2023-03-20T10:58:31;8.40;99.90
16907;DHT22;8570;52.380;4.654;2023-03-20T11:03:35;8.50;99.90
16907;DHT22;8570;52.380;4.654;2023-03-20T11:08:41;8.50;99.90
16907;DHT22;8570;52.380;4.654;2023-03-20T11:13:44;8.40;99.90
16907;DHT22;8570;52.380;4.654;2023-03-20T11:18:48;8.50;99.90
16907;DHT22;8570;52.380;4.654;2023-03-20T11:23:52;8.50;99.90
16907;DHT22;8570;52.380;4.654;2023-03-20T11:28:56;8.50;99.90
16907;DHT22;8570;52.380;4.654;2023-03-20T11:34:14;8.60;99.90
16907;DHT22;8570;52.380;4.654;2023-03-20T11:39:23;8.60;99.90
16907;DHT22;8570;52.380;4.654;2023-03-20T11:44:28;8.60;99.90
16907;DHT22;8570;52.380;4.654;2023-03-20T11:49:32;8.60;99.90
16907;DHT22;8570;52.380;4.654;2023-03-20T11:54:47;8.60;99.90
16907;DHT22;8570;52.380;4.654;2023-03-20T11:59:50;8.60;99.90
16907;DHT22;8570;52.380;4.654;2023-03-20T12:04:58;8.70;99.90
16907;DHT22;8570;52.380;4.654;2023-03-20T12:10:02;8.70;99.90
16907;DHT22;8570;52.380;4.654;2023-03-20T12:15:12;8.80;99.90
16907;DHT22;8570;52.380;4.654;2023-03-20T12:20:31;8.80;99.90
16907;DHT22;8570;52.380;4.654;2023-03-20T12:25:37;8.80;99.90
16907;DHT22;8570;52.380;4.654;2023-03-20T12:30:50;8.80;99.90
16907;DHT22;8570;52.380;4.654;2023-03-20T12:35:57;8.80;99.90
16907;DHT22;8570;52.380;4.654;2023-03-20T12:41:08;8.80;99.90
16907;DHT22;8570;52.380;4.654;2023-03-20T12:46:25;8.80;99.90
16907;DHT22;8570;52.380;4.654;2023-03-20T12:51:38;8.80;99.90
16907;DHT22;8570;52.380;4.654;2023-03-20T12:56:55;8.80;99.90
16907;DHT22;8570;52.380;4.654;2023-03-20T13:02:11;8.90;99.90
16907;DHT22;8570;52.380;4.654;2023-03-20T13:07:19;8.90;99.90
16907;DHT22;8570;52.380;4.654;2023-03-20T13:12:33;8.90;99.90
16907;DHT22;8570;52.380;4.654;2023-03-20T13:17:40;8.90;99.90
16907;DHT22;8570;52.380;4.654;2023-03-20T13:22:53;8.90;99.90
16907;DHT22;8570;52.380;4.654;2023-03-20T13:28:03;8.90;99.90
16907;DHT22;8570;52.380;4.654;2023-03-20T13:33:15;8.90;99.90
16907;DHT22;8570;52.380;4.654;2023-03-20T13:38:27;9.00;99.90
16907;DHT22;8570;52.380;4.654;2023-03-20T13:43:34;8.90;99.90
16907;DHT22;8570;52.380;4.654;2023-03-20T13:48:37;8.90;99.90
16907;DHT22;8570;52.380;4.654;2023-03-20T13:53:52;8.90;99.90
16907;DHT22;8570;52.380;4.654;2023-03-20T13:59:00;8.90;99.90
16907;DHT22;8570;52.380;4.654;2023-03-20T14:04:08;9.00;99.90
16907;DHT22;8570;52.380;4.654;2023-03-20T14:09:34;8.90;99.90
16907;DHT22;8570;52.380;4.654;2023-03-20T14:14:41;8.90;99.90
16907;DHT22;8570;52.380;4.654;2023-03-20T14:19:44;8.90;99.90
16907;DHT22;8570;52.380;4.654;2023-03-20T14:24:55;8.90;99.90
16907;DHT22;8570;52.380;4.654;2023-03-20T14:35:36;8.90;99.90
16907;DHT22;8570;52.380;4.654;2023-03-20T14:40:46;8.90;99.90
16907;DHT22;8570;52.380;4.654;2023-03-20T14:45:53;8.90;99.90
16907;DHT22;8570;52.380;4.654;2023-03-20T14:51:13;8.90;99.90
16907;DHT22;8570;52.380;4.654;2023-03-20T14:56:26;8.90;99.90
16907;DHT22;8570;52.380;4.654;2023-03-20T15:01:44;8.90;99.90
16907;DHT22;8570;52.380;4.654;2023-03-20T15:06:50;8.90;99.90
16907;DHT22;8570;52.380;4.654;2023-03-20T15:11:56;8.90;99.90
16907;DHT22;8570;52.380;4.654;2023-03-20T15:17:03;8.90;99.90
16907;DHT22;8570;52.380;4.654;2023-03-20T15:22:14;8.90;99.90
16907;DHT22;8570;52.380;4.654;2023-03-20T15:27:19;8.90;99.90
16907;DHT22;8570;52.380;4.654;2023-03-20T15:32:21;9.00;99.90
16907;DHT22;8570;52.380;4.654;2023-03-20T15:37:26;8.90;99.90
16907;DHT22;8570;52.380;4.654;2023-03-20T15:42:31;9.00;99.90
16907;DHT22;8570;52.380;4.654;2023-03-20T15:47:36;9.00;99.90
16907;DHT22;8570;52.380;4.654;2023-03-20T15:52:41;9.00;99.90
16907;DHT22;8570;52.380;4.654;2023-03-20T15:58:06;9.00;99.90
16907;DHT22;8570;52.380;4.654;2023-03-20T16:03:13;9.00;99.90
16907;DHT22;8570;52.380;4.654;2023-03-20T16:08:22;9.00;99.90
16907;DHT22;8570;52.380;4.654;2023-03-20T16:13:35;8.90;99.90
16907;DHT22;8570;52.380;4.654;2023-03-20T16:18:38;9.00;99.90
16907;DHT22;8570;52.380;4.654;2023-03-20T16:23:44;8.90;99.90
16907;DHT22;8570;52.380;4.654;2023-03-20T16:28:50;8.90;99.90
16907;DHT22;8570;52.380;4.654;2023-03-20T16:33:56;8.90;99.90
16907;DHT22;8570;52.380;4.654;2023-03-20T16:39:06;8.90;99.90
16907;DHT22;8570;52.380;4.654;2023-03-20T16:44:13;8.90;99.90
16907;DHT22;8570;52.380;4.654;2023-03-20T16:49:49;8.90;99.90
16907;DHT22;8570;52.380;4.654;2023-03-20T16:54:51;8.90;99.90
16907;DHT22;8570;52.380;4.654;2023-03-20T17:00:02;8.90;99.90
16907;DHT22;8570;52.380;4.654;2023-03-20T17:05:11;8.90;99.90
16907;DHT22;8570;52.380;4.654;2023-03-20T17:10:18;8.80;99.90
16907;DHT22;8570;52.380;4.654;2023-03-20T17:15:23;8.80;99.90
16907;DHT22;8570;52.380;4.654;2023-03-20T17:20:27;8.90;99.90
16907;DHT22;8570;52.380;4.654;2023-03-20T17:25:30;8.80;99.90
16907;DHT22;8570;52.380;4.654;2023-03-20T17:30:33;8.80;99.90
16907;DHT22;8570;52.380;4.654;2023-03-20T17:35:37;8.80;99.90
16907;DHT22;8570;52.380;4.654;2023-03-20T17:40:38;8.80;99.90
16907;DHT22;8570;52.380;4.654;2023-03-20T17:45:43;8.80;99.90
16907;DHT22;8570;52.380;4.654;2023-03-20T17:50:46;8.80;99.90
16907;DHT22;8570;52.380;4.654;2023-03-20T17:55:50;8.80;99.90
16907;DHT22;8570;52.380;4.654;2023-03-20T18:00:54;8.80;99.90
16907;DHT22;8570;52.380;4.654;2023-03-20T18:05:56;8.80;99.90
16907;DHT22;8570;52.380;4.654;2023-03-20T18:10:58;8.80;99.90
16907;DHT22;8570;52.380;4.654;2023-03-20T18:16:01;8.80;99.90
16907;DHT22;8570;52.380;4.654;2023-03-20T18:21:03;8.80;99.90
16907;DHT22;8570;52.380;4.654;2023-03-20T18:26:17;8.80;99.90
16907;DHT22;8570;52.380;4.654;2023-03-20T18:31:21;8.80;99.90
16907;DHT22;8570;52.380;4.654;2023-03-20T18:36:23;8.80;99.90
16907;DHT22;8570;52.380;4.654;2023-03-20T18:41:25;8.80;99.90
16907;DHT22;8570;52.380;4.654;2023-03-20T18:46:29;8.80;99.90
16907;DHT22;8570;52.380;4.654;2023-03-20T18:51:31;8.80;99.90
16907;DHT22;8570;52.380;4.654;2023-03-20T18:56:33;8.80;99.90
16907;DHT22;8570;52.380;4.654;2023-03-20T19:01:38;8.80;99.90
16907;DHT22;8570;52.380;4.654;2023-03-20T19:06:40;8.80;99.90
16907;DHT22;8570;52.380;4.654;2023-03-20T19:11:45;8.80;99.90
16907;DHT22;8570;52.380;4.654;2023-03-20T19:16:51;8.80;99.90
16907;DHT22;8570;52.380;4.654;2023-03-20T19:21:53;8.80;99.90
16907;DHT22;8570;52.380;4.654;2023-03-20T19:26:54;8.80;99.90
16907;DHT22;8570;52.380;4.654;2023-03-20T19:31:58;8.80;99.90
16907;DHT22;8570;52.380;4.654;2023-03-20T19:37:00;8.80;99.90
16907;DHT22;8570;52.380;4.654;2023-03-20T19:42:02;8.80;99.90
16907;DHT22;8570;52.380;4.654;2023-03-20T19:47:08;8.80;99.90
16907;DHT22;8570;52.380;4.654;2023-03-20T19:52:14;8.80;99.90
16907;DHT22;8570;52.380;4.654;2023-03-20T19:57:18;8.80;99.90
16907;DHT22;8570;52.380;4.654;2023-03-20T20:02:22;8.80;99.90
16907;DHT22;8570;52.380;4.654;2023-03-20T20:07:24;8.80;99.90
16907;DHT22;8570;52.380;4.654;2023-03-20T20:12:25;8.80;99.90
16907;DHT22;8570;52.380;4.654;2023-03-20T20:17:29;8.80;99.90
16907;DHT22;8570;52.380;4.654;2023-03-20T20:22:31;8.80;99.90
16907;DHT22;8570;52.380;4.654;2023-03-20T20:27:33;8.80;99.90
16907;DHT22;8570;52.380;4.654;2023-03-20T20:32:37;8.80;99.90
16907;DHT22;8570;52.380;4.654;2023-03-20T20:37:40;8.80;99.90
16907;DHT22;8570;52.380;4.654;2023-03-20T20:42:42;8.80;99.90
16907;DHT22;8570;52.380;4.654;2023-03-20T20:47:48;8.80;99.90
16907;DHT22;8570;52.380;4.654;2023-03-20T20:52:50;8.80;99.90
16907;DHT22;8570;52.380;4.654;2023-03-20T20:57:53;8.90;99.90
16907;DHT22;8570;52.380;4.654;2023-03-20T21:02:57;8.90;99.90
16907;DHT22;8570;52.380;4.654;2023-03-20T21:07:59;8.90;99.90
16907;DHT22;8570;52.380;4.654;2023-03-20T21:13:01;8.90;99.90
16907;DHT22;8570;52.380;4.654;2023-03-20T21:18:04;8.90;99.90
16907;DHT22;8570;52.380;4.654;2023-03-20T21:23:06;8.90;99.90
16907;DHT22;8570;52.380;4.654;2023-03-20T21:28:09;9.00;99.90
16907;DHT22;8570;52.380;4.654;2023-03-20T21:33:12;9.00;99.90
16907;DHT22;8570;52.380;4.654;2023-03-20T21:38:15;9.00;99.90
16907;DHT22;8570;52.380;4.654;2023-03-20T21:43:17;9.00;99.90
16907;DHT22;8570;52.380;4.654;2023-03-20T21:48:20;9.00;99.90
16907;DHT22;8570;52.380;4.654;2023-03-20T21:53:22;9.10;99.90
16907;DHT22;8570;52.380;4.654;2023-03-20T21:58:24;9.00;99.90
16907;DHT22;8570;52.380;4.654;2023-03-20T22:03:27;9.00;99.90
16907;DHT22;8570;52.380;4.654;2023-03-20T22:08:29;9.00;99.90
16907;DHT22;8570;52.380;4.654;2023-03-20T22:13:34;9.00;99.90
16907;DHT22;8570;52.380;4.654;2023-03-20T22:18:40;9.10;99.90
16907;DHT22;8570;52.380;4.654;2023-03-20T22:23:42;9.10;99.90
16907;DHT22;8570;52.380;4.654;2023-03-20T22:28:44;9.00;99.90
16907;DHT22;8570;52.380;4.654;2023-03-20T22:33:47;9.00;99.90
16907;DHT22;8570;52.380;4.654;2023-03-20T22:38:50;9.00;99.90
16907;DHT22;8570;52.380;4.654;2023-03-20T22:43:52;9.00;99.90
16907;DHT22;8570;52.380;4.654;2023-03-20T22:48:55;9.00;99.90
16907;DHT22;8570;52.380;4.654;2023-03-20T22:53:58;9.00;99.90
16907;DHT22;8570;52.380;4.654;2023-03-20T22:59:00;9.00;99.90
16907;DHT22;8570;52.380;4.654;2023-03-20T23:04:03;9.00;99.90
16907;DHT22;8570;52.380;4.654;2023-03-20T23:09:05;9.00;99.90
16907;DHT22;8570;52.380;4.654;2023-03-20T23:14:08;9.10;99.90
16907;DHT22;8570;52.380;4.654;2023-03-20T23:19:12;9.00;99.90
16907;DHT22;8570;52.380;4.654;2023-03-20T23:24:13;9.00;99.90
16907;DHT22;8570;52.380;4.654;2023-03-20T23:29:16;9.00;99.90
16907;DHT22;8570;52.380;4.654;2023-03-20T23:34:19;9.00;99.90
16907;DHT22;8570;52.380;4.654;2023-03-20T23:39:21;9.00;99.90
16907;DHT22;8570;52.380;4.654;2023-03-20T23:44:23;9.00;99.90
16907;DHT22;8570;52.380;4.654;2023-03-20T23:49:26;9.00;99.90
16907;DHT22;8570;52.380;4.654;2023-03-20T23:54:28;9.00;99.90
16907;DHT22;8570;52.380;4.654;2023-03-20T23:59:30;9.00;99.90
